createdAt,value
2019-02-25T00:02:37.994Z,64.17
2019-02-25T00:05:42.254Z,64.77
2019-02-25T00:08:46.828Z,65.57
2019-02-25T00:11:51.211Z,57.20
2019-02-25T00:14:55.579Z,57.70
2019-02-25T00:17:59.786Z,51.87
2019-02-25T00:21:04.179Z,54.63
2019-02-25T00:24:08.517Z,55.27
2019-02-25T00:27:12.824Z,52.13
2019-02-25T00:30:17.156Z,60.97
2019-02-25T00:33:22.774Z,56.77
2019-02-25T00:36:27.031Z,52.03
2019-02-25T00:39:31.320Z,51.23
2019-02-25T00:42:35.678Z,50.40
2019-02-25T00:45:39.923Z,50.83
2019-02-25T00:48:45.177Z,50.60
2019-02-25T00:51:49.495Z,54.40
2019-02-25T00:54:53.868Z,61.33
2019-02-25T00:57:58.166Z,61.50
2019-02-25T01:01:02.417Z,61.23
2019-02-25T01:04:06.820Z,62.00
2019-02-25T01:07:11.283Z,68.57
2019-02-25T01:10:16.704Z,56.77
2019-02-25T01:13:21.084Z,51.93
2019-02-25T01:16:25.430Z,51.50
2019-02-25T01:19:29.716Z,52.67
2019-02-25T01:22:34.012Z,54.10
2019-02-25T01:25:38.264Z,54.63
2019-02-25T01:28:42.476Z,52.87
2019-02-25T01:31:46.666Z,50.77
2019-02-25T01:34:51.250Z,48.30
2019-02-25T01:37:55.585Z,50.10
2019-02-25T01:40:59.951Z,47.70
2019-02-25T01:44:04.387Z,49.13
2019-02-25T01:47:08.748Z,52.00
2019-02-25T01:50:13.658Z,53.47
2019-02-25T01:53:17.972Z,64.67
2019-02-25T01:56:22.340Z,63.93
2019-02-25T01:59:26.709Z,56.57
2019-02-25T02:02:30.974Z,53.97
2019-02-25T02:05:35.321Z,56.50
2019-02-25T02:08:39.573Z,67.40
2019-02-25T02:11:43.931Z,68.47
2019-02-25T02:14:48.144Z,54.20
2019-02-25T02:17:52.505Z,57.37
2019-02-25T02:20:56.955Z,61.20
2019-02-25T02:24:01.335Z,54.43
2019-02-25T02:27:05.665Z,56.67
2019-02-25T02:30:12.994Z,56.83
2019-02-25T02:33:17.352Z,53.63
2019-02-25T02:36:21.733Z,66.67
2019-02-25T02:39:26.061Z,51.07
2019-02-25T02:42:30.423Z,48.43
2019-02-25T02:45:38.052Z,48.20
2019-02-25T02:48:55.068Z,43.10
2019-02-25T02:51:59.329Z,43.23
2019-02-25T02:55:04.094Z,47.03
2019-02-25T02:58:08.452Z,46.50
2019-02-25T03:01:12.754Z,48.43
2019-02-25T03:04:17.105Z,44.33
2019-02-25T03:07:21.412Z,45.00
2019-02-25T03:10:25.697Z,45.33
2019-02-25T03:13:29.984Z,41.30
2019-02-25T03:16:34.255Z,41.40
2019-02-25T03:19:38.583Z,41.90
2019-02-25T03:22:42.919Z,40.53
2019-02-25T03:25:47.285Z,38.90
2019-02-25T03:28:51.545Z,39.20
2019-02-25T03:31:55.845Z,39.83
2019-02-25T03:35:00.303Z,40.00
2019-02-25T03:38:04.890Z,39.83
2019-02-25T03:41:09.349Z,41.77
2019-02-25T03:44:13.579Z,41.43
2019-02-25T03:47:17.916Z,42.63
2019-02-25T03:50:22.232Z,45.47
2019-02-25T03:53:26.500Z,41.57
2019-02-25T03:56:30.862Z,44.13
2019-02-25T03:59:35.239Z,42.63
2019-02-25T04:02:40.412Z,42.20
2019-02-25T04:05:44.681Z,44.87
2019-02-25T04:08:49.073Z,41.17
2019-02-25T04:11:53.771Z,39.80
2019-02-25T04:14:57.995Z,41.83
2019-02-25T04:18:02.252Z,39.27
2019-02-25T04:21:06.546Z,40.47
2019-02-25T04:24:10.806Z,40.27
2019-02-25T04:27:15.180Z,41.97
2019-02-25T04:30:19.662Z,40.73
2019-02-25T04:33:23.950Z,42.43
2019-02-25T04:36:28.291Z,40.23
2019-02-25T04:39:32.585Z,40.30
2019-02-25T04:42:36.861Z,40.33
2019-02-25T04:45:41.168Z,42.83
2019-02-25T04:48:45.489Z,48.47
2019-02-25T04:51:49.774Z,51.87
2019-02-25T04:54:54.066Z,49.60
2019-02-25T04:57:58.435Z,45.83
2019-02-25T05:01:02.779Z,47.87
2019-02-25T05:04:07.156Z,46.80
2019-02-25T05:07:11.499Z,53.90
2019-02-25T05:10:15.886Z,52.70
2019-02-25T05:13:20.232Z,51.67
2019-02-25T05:16:24.631Z,50.93
2019-02-25T05:19:28.978Z,46.73
2019-02-25T05:22:33.271Z,42.73
2019-02-25T05:25:37.529Z,41.57
2019-02-25T05:28:41.900Z,40.30
2019-02-25T05:31:46.175Z,40.00
2019-02-25T05:34:50.629Z,42.83
2019-02-25T05:37:54.976Z,41.70
2019-02-25T05:40:59.274Z,43.63
2019-02-25T05:44:03.585Z,42.30
2019-02-25T05:47:07.876Z,44.80
2019-02-25T05:50:14.676Z,47.00
2019-02-25T05:53:18.887Z,50.23
2019-02-25T05:56:23.153Z,47.93
2019-02-25T05:59:27.435Z,46.83
2019-02-25T06:02:31.768Z,49.03
2019-02-25T06:05:36.123Z,46.70
2019-02-25T06:08:40.474Z,45.50
2019-02-25T06:11:44.835Z,44.40
2019-02-25T06:14:49.466Z,41.77
2019-02-25T06:17:53.890Z,39.80
2019-02-25T06:20:58.242Z,39.07
2019-02-25T06:24:02.663Z,40.10
2019-02-25T06:27:07.023Z,39.27
2019-02-25T06:30:14.335Z,34.57
2019-02-25T06:33:18.730Z,35.27
2019-02-25T06:36:23.106Z,35.73
2019-02-25T06:39:27.375Z,32.10
2019-02-25T06:42:31.745Z,33.10
2019-02-25T06:45:36.106Z,32.43
2019-02-25T06:48:40.406Z,32.53
2019-02-25T06:51:44.690Z,33.30
2019-02-25T06:54:48.965Z,34.33
2019-02-25T06:57:54.302Z,31.27
2019-02-25T07:00:59.143Z,30.23
2019-02-25T07:04:35.865Z,31.23
2019-02-25T07:07:51.174Z,31.27
2019-02-25T07:11:04.246Z,31.33
2019-02-25T07:14:33.515Z,31.03
2019-02-25T07:17:56.765Z,30.07
2019-02-25T07:21:26.144Z,30.03
2019-02-25T07:24:53.029Z,31.13
2019-02-25T07:28:22.621Z,29.90
2019-02-25T07:31:54.651Z,29.33
2019-02-25T07:35:18.042Z,28.97
2019-02-25T07:38:44.340Z,29.27
2019-02-25T07:42:07.361Z,29.57
2019-02-25T07:45:31.376Z,27.53
2019-02-25T07:48:55.872Z,31.60
2019-02-25T07:52:15.190Z,27.60
2019-02-25T07:55:47.890Z,27.53
2019-02-25T07:59:01.566Z,26.97
2019-02-25T08:02:23.920Z,26.90
2019-02-25T08:05:56.210Z,26.97
2019-02-25T08:09:26.683Z,26.50
2019-02-25T08:12:43.889Z,24.07
2019-02-25T08:16:10.369Z,24.20
2019-02-25T08:19:20.721Z,23.07
2019-02-25T08:22:35.209Z,24.60
2019-02-25T08:25:57.107Z,25.10
2019-02-25T08:29:19.313Z,24.03
2019-02-25T08:32:30.965Z,23.97
2019-02-25T08:36:41.142Z,23.83
2019-02-25T08:40:01.118Z,22.93
2019-02-25T08:43:31.772Z,24.87
2019-02-25T08:46:47.692Z,24.87
2019-02-25T08:50:00.929Z,24.10
2019-02-25T08:53:05.265Z,23.33
2019-02-25T08:56:09.599Z,23.43
2019-02-25T08:59:13.853Z,25.17
2019-02-25T09:02:18.216Z,26.10
2019-02-25T09:05:22.424Z,25.97
2019-02-25T09:08:26.763Z,25.30
2019-02-25T09:11:31.091Z,25.30
2019-02-25T09:14:35.405Z,25.77
2019-02-25T09:17:45.040Z,25.83
2019-02-25T09:20:49.593Z,26.47
2019-02-25T09:23:53.930Z,24.37
2019-02-25T09:26:58.215Z,24.80
2019-02-25T09:30:02.477Z,25.83
2019-02-25T09:33:06.702Z,25.53
2019-02-25T09:36:11.050Z,25.80
2019-02-25T09:39:16.832Z,26.93
2019-02-25T09:42:21.299Z,26.03
2019-02-25T09:45:25.675Z,26.83
2019-02-25T09:48:30.026Z,25.40
2019-02-25T09:51:34.565Z,25.07
2019-02-25T09:54:38.918Z,24.27
2019-02-25T09:57:43.213Z,24.50
2019-02-25T10:00:47.546Z,24.23
2019-02-25T10:03:51.929Z,22.77
2019-02-25T10:07:02.283Z,22.60
2019-02-25T10:10:02.171Z,23.07
2019-02-25T10:13:06.427Z,23.23
2019-02-25T10:16:10.644Z,22.37
2019-02-25T10:19:16.736Z,22.20
2019-02-25T10:22:21.058Z,23.20
2019-02-25T10:25:25.320Z,22.67
2019-02-25T10:28:29.576Z,22.70
2019-02-25T10:31:33.923Z,20.97
2019-02-25T10:34:38.293Z,21.50
2019-02-25T10:37:43.775Z,21.83
2019-02-25T10:40:49.529Z,21.80
2019-02-25T10:43:54.191Z,23.47
2019-02-25T10:46:58.498Z,22.40
2019-02-25T10:50:03.218Z,21.70
2019-02-25T10:53:08.832Z,21.83
2019-02-25T10:56:26.287Z,22.00
2019-02-25T10:59:32.234Z,23.03
2019-02-25T11:02:43.993Z,21.97
2019-02-25T11:05:42.570Z,22.73
2019-02-25T11:08:51.814Z,21.53
2019-02-25T11:11:58.019Z,22.63
2019-02-25T11:15:02.328Z,21.43
2019-02-25T11:18:07.854Z,22.53
2019-02-25T11:21:12.199Z,22.17
2019-02-25T11:24:17.122Z,21.80
2019-02-25T11:27:22.551Z,20.43
2019-02-25T11:30:26.939Z,22.70
2019-02-25T11:33:32.588Z,20.53
2019-02-25T11:36:37.261Z,22.53
2019-02-25T11:39:41.585Z,21.37
2019-02-25T11:42:45.807Z,23.70
2019-02-25T11:45:50.150Z,21.67
2019-02-25T11:48:54.546Z,21.63
2019-02-25T11:51:58.885Z,21.67
2019-02-25T11:55:03.318Z,22.70
2019-02-25T11:58:07.669Z,21.17
2019-02-25T12:01:12.060Z,19.90
2019-02-25T12:04:16.443Z,20.63
2019-02-25T12:07:20.885Z,20.70
2019-02-25T12:10:25.252Z,20.53
2019-02-25T12:13:29.690Z,20.03
2019-02-25T12:16:34.035Z,21.07
2019-02-25T12:19:38.266Z,19.63
2019-02-25T12:22:42.805Z,19.93
2019-02-25T12:25:47.033Z,19.10
2019-02-25T12:28:51.359Z,20.00
2019-02-25T12:31:55.597Z,19.57
2019-02-25T12:34:59.881Z,19.93
2019-02-25T12:38:04.586Z,20.40
2019-02-25T12:41:10.319Z,19.17
2019-02-25T12:44:15.234Z,18.57
2019-02-25T12:47:19.481Z,19.07
2019-02-25T12:50:24.156Z,18.67
2019-02-25T12:53:28.436Z,18.80
2019-02-25T12:56:32.945Z,18.43
2019-02-25T12:59:37.299Z,19.17
2019-02-25T13:02:41.593Z,19.23
2019-02-25T13:05:45.933Z,19.40
2019-02-25T13:08:50.338Z,19.00
2019-02-25T13:11:54.681Z,20.27
2019-02-25T13:14:58.981Z,19.17
2019-02-25T13:18:03.346Z,18.93
2019-02-25T13:21:07.717Z,18.17
2019-02-25T13:24:12.075Z,18.47
2019-02-25T13:27:16.512Z,19.10
2019-02-25T13:30:20.788Z,20.07
2019-02-25T13:33:25.090Z,19.97
2019-02-25T13:36:29.390Z,19.73
2019-02-25T13:39:33.799Z,20.40
2019-02-25T13:42:38.192Z,19.83
2019-02-25T13:45:42.580Z,20.23
2019-02-25T13:48:46.949Z,19.53
2019-02-25T13:51:51.371Z,19.70
2019-02-25T13:54:55.749Z,20.97
2019-02-25T13:58:00.151Z,20.80
2019-02-25T14:01:07.494Z,20.70
2019-02-25T14:04:11.802Z,21.07
2019-02-25T14:07:16.157Z,19.87
2019-02-25T14:10:21.002Z,22.20
2019-02-25T14:13:25.457Z,22.03
2019-02-25T14:16:29.889Z,22.73
2019-02-25T14:19:34.288Z,23.30
2019-02-25T14:22:38.717Z,22.23
2019-02-25T14:25:43.068Z,21.73
2019-02-25T14:28:48.694Z,22.30
2019-02-25T14:31:53.036Z,23.83
2019-02-25T14:34:57.973Z,22.07
2019-02-25T14:38:07.621Z,22.00
2019-02-25T14:41:11.185Z,21.70
2019-02-25T14:44:17.532Z,23.40
2019-02-25T14:47:25.813Z,22.47
2019-02-25T14:50:27.912Z,22.73
2019-02-25T14:53:32.468Z,22.13
2019-02-25T14:56:36.929Z,22.70
2019-02-25T14:59:41.460Z,21.93
2019-02-25T15:02:47.740Z,21.27
2019-02-25T15:05:53.270Z,20.43
2019-02-25T15:08:59.578Z,22.00
2019-02-25T15:12:06.417Z,21.90
2019-02-25T15:15:12.138Z,22.03
2019-02-25T15:18:16.504Z,21.83
2019-02-25T15:21:20.919Z,22.37
2019-02-25T15:24:25.461Z,21.70
2019-02-25T15:27:29.803Z,23.10
2019-02-25T15:30:34.366Z,23.67
2019-02-25T15:33:40.414Z,22.27
2019-02-25T15:36:45.276Z,22.10
2019-02-25T15:39:49.678Z,22.33
2019-02-25T15:43:12.665Z,22.47
2019-02-25T15:46:16.678Z,21.63
2019-02-25T15:49:21.770Z,22.77
2019-02-25T15:52:27.718Z,23.27
2019-02-25T15:55:32.940Z,23.70
2019-02-25T15:58:37.296Z,23.33
2019-02-25T16:01:41.595Z,24.53
2019-02-25T16:04:45.872Z,24.00
2019-02-25T16:07:51.880Z,25.63
2019-02-25T16:11:06.890Z,26.93
2019-02-25T16:14:11.538Z,24.63
2019-02-25T16:17:15.899Z,25.30
2019-02-25T16:20:20.431Z,24.77
2019-02-25T16:23:25.766Z,25.13
2019-02-25T16:26:32.061Z,27.17
2019-02-25T16:29:37.259Z,26.53
2019-02-25T16:32:42.616Z,25.50
2019-02-25T16:35:47.842Z,26.57
2019-02-25T16:38:55.557Z,25.70
2019-02-25T16:41:58.229Z,25.10
2019-02-25T16:45:04.108Z,25.90
2019-02-25T16:48:09.015Z,27.00
2019-02-25T16:51:13.643Z,26.20
2019-02-25T16:54:20.207Z,30.07
2019-02-25T16:57:25.077Z,32.43
2019-02-25T17:00:30.570Z,34.63
2019-02-25T17:03:37.590Z,32.67
2019-02-25T17:06:41.738Z,35.57
2019-02-25T17:09:46.177Z,34.40
2019-02-25T17:12:52.643Z,34.20
2019-02-25T17:15:56.788Z,34.93
2019-02-25T17:19:01.344Z,34.83
2019-02-25T17:22:05.788Z,35.43
2019-02-25T17:25:12.142Z,35.50
2019-02-25T17:28:19.751Z,36.87
2019-02-25T17:31:22.610Z,42.87
2019-02-25T17:34:26.998Z,49.17
2019-02-25T17:37:33.615Z,52.17
2019-02-25T17:40:37.654Z,64.57
2019-02-25T17:43:43.098Z,71.40
2019-02-25T17:46:47.610Z,73.97
2019-02-25T17:49:52.084Z,79.53
2019-02-25T17:52:56.482Z,82.73
2019-02-25T17:56:00.923Z,81.83
2019-02-25T17:59:05.957Z,78.87
2019-02-25T18:02:12.707Z,77.27
2019-02-25T18:05:19.102Z,76.23
2019-02-25T18:08:23.985Z,73.10
2019-02-25T18:11:28.478Z,72.53
2019-02-25T18:14:33.142Z,73.57
2019-02-25T18:17:38.813Z,72.73
2019-02-25T18:20:43.492Z,74.47
2019-02-25T18:23:49.360Z,74.97
2019-02-25T18:26:54.371Z,76.67
2019-02-25T18:29:59.583Z,76.13
2019-02-25T18:33:05.221Z,75.60
2019-02-25T18:36:11.269Z,80.00
2019-02-25T18:39:15.603Z,88.67
2019-02-25T18:42:20.287Z,94.83
2019-02-25T18:45:25.509Z,94.57
2019-02-25T18:48:29.976Z,98.00
2019-02-25T18:51:35.870Z,95.90
2019-02-25T18:54:41.269Z,94.47
2019-02-25T18:57:53.766Z,92.03
2019-02-25T19:00:58.466Z,90.27
2019-02-25T19:04:03.082Z,88.33
2019-02-25T19:07:08.324Z,93.67
2019-02-25T19:10:16.238Z,96.50
2019-02-25T19:13:23.283Z,90.97
2019-02-25T19:16:27.919Z,92.30
2019-02-25T19:19:34.240Z,93.43
2019-02-25T19:22:39.753Z,96.33
2019-02-25T19:25:44.908Z,100.63
2019-02-25T19:28:50.215Z,97.77
2019-02-25T19:31:56.406Z,96.17
2019-02-25T19:35:03.969Z,99.63
2019-02-25T19:38:10.099Z,95.63
2019-02-25T19:41:17.779Z,94.70
2019-02-25T19:44:22.526Z,96.00
2019-02-25T19:47:26.982Z,97.90
2019-02-25T19:50:32.399Z,95.97
2019-02-25T19:53:40.263Z,98.23
2019-02-25T19:56:45.976Z,97.53
2019-02-25T19:59:52.857Z,97.97
2019-02-25T20:03:05.146Z,98.20
2019-02-25T20:06:03.760Z,101.43
2019-02-25T20:09:08.477Z,102.43
2019-02-25T20:12:12.776Z,102.63
2019-02-25T20:15:20.464Z,101.90
2019-02-25T20:18:24.806Z,103.37
2019-02-25T20:21:30.932Z,106.80
2019-02-25T20:24:35.225Z,109.77
2019-02-25T20:27:39.632Z,115.47
2019-02-25T20:30:44.721Z,114.33
2019-02-25T20:33:50.900Z,115.67
2019-02-25T20:36:57.822Z,113.20
2019-02-25T20:40:02.024Z,114.23
2019-02-25T20:43:06.406Z,113.03
2019-02-25T20:46:10.909Z,116.47
2019-02-25T20:49:18.365Z,117.13
2019-02-25T20:52:22.897Z,112.87
2019-02-25T20:55:29.258Z,115.83
2019-02-25T20:58:35.552Z,113.23
2019-02-25T21:01:42.310Z,111.83
2019-02-25T21:04:47.888Z,112.27
2019-02-25T21:07:53.363Z,114.87
2019-02-25T21:10:59.862Z,112.67
2019-02-25T21:14:03.770Z,110.43
2019-02-25T21:17:08.143Z,106.60
2019-02-25T21:20:13.655Z,103.10
2019-02-25T21:23:18.160Z,102.37
2019-02-25T21:26:25.382Z,104.10
2019-02-25T21:29:29.351Z,99.07
2019-02-25T21:32:34.232Z,99.07
2019-02-25T21:35:39.712Z,99.47
2019-02-25T21:38:45.319Z,94.13
2019-02-25T21:41:50.557Z,94.00
2019-02-25T21:44:56.910Z,90.63
2019-02-25T21:48:01.860Z,88.97
2019-02-25T21:51:08.026Z,89.53
2019-02-25T21:54:13.112Z,88.80
2019-02-25T21:57:17.552Z,88.43
2019-02-25T22:00:21.963Z,85.47
2019-02-25T22:03:26.312Z,84.23
2019-02-25T22:06:31.594Z,87.77
2019-02-25T22:09:41.871Z,81.43
2019-02-25T22:12:44.402Z,86.37
2019-02-25T22:15:49.135Z,84.90
2019-02-25T22:18:54.285Z,81.63
2019-02-25T22:22:00.444Z,85.80
2019-02-25T22:25:08.583Z,89.43
2019-02-25T22:28:12.462Z,93.13
2019-02-25T22:31:18.115Z,92.47
2019-02-25T22:34:23.544Z,91.87
2019-02-25T22:37:29.278Z,88.77
2019-02-25T22:40:36.241Z,83.80
2019-02-25T22:43:43.174Z,82.53
2019-02-25T22:46:46.238Z,80.63
2019-02-25T22:49:50.544Z,78.83
2019-02-25T22:52:58.267Z,78.93
2019-02-25T22:56:00.958Z,77.20
2019-02-25T22:59:05.304Z,75.03
2019-02-25T23:02:10.885Z,72.80
2019-02-25T23:05:18.590Z,71.87
2019-02-25T23:08:23.425Z,73.03
2019-02-25T23:11:27.719Z,71.27
2019-02-25T23:14:34.000Z,72.23
2019-02-25T23:17:40.024Z,70.73
2019-02-25T23:20:44.293Z,69.67
2019-02-25T23:23:51.233Z,69.50
2019-02-25T23:26:55.198Z,69.40
2019-02-25T23:30:00.498Z,66.87
2019-02-25T23:33:04.819Z,67.60
2019-02-25T23:36:11.050Z,68.37
2019-02-25T23:39:17.723Z,71.50
2019-02-25T23:42:21.698Z,76.20
2019-02-25T23:45:26.126Z,76.57
2019-02-25T23:48:33.044Z,85.60
2019-02-25T23:51:37.706Z,85.07
2019-02-25T23:54:45.239Z,85.57
2019-02-25T23:57:48.242Z,85.97
